Time;durP1;ratioP1;P1;durP2;ratioP2;P2;SDS_P1;SDS_P2;PMS_P1;PMS_P2;Temp;Humidity;BMP_temperature;BMP_pressure;BME280_temperature;BME280_humidity;BME280_pressure;Samples;Min_cycle;Max_cycle;Signal;HPM_P1;HPM_P2
2022/12/08 00:01:23;;;;;;;6.70;2.80;;;;;;;-145.69;100.00;52745.41;5093448;28;20584;-82
2022/12/08 00:03:50;;;;;;;5.10;2.20;;;;;;;-145.69;100.00;52713.72;5093260;28;20198;-82
2022/12/08 00:09:22;;;;;;;4.03;2.30;;;;;;;-145.69;100.00;52741.47;5093130;28;20205;-82
2022/12/08 00:11:50;;;;;;;2.73;2.00;;;;;;;-145.69;100.00;52715.72;5093342;28;20198;-82
2022/12/08 00:14:19;;;;;;;4.87;2.10;;;;;;;-145.69;100.00;52751.34;5093284;28;20625;-82
2022/12/08 00:16:46;;;;;;;4.17;2.23;;;;;;;-145.69;100.00;52761.25;5093287;28;20202;-83
2022/12/08 00:19:12;;;;;;;3.63;2.50;;;;;;;-145.69;100.00;52749.38;5093061;28;20198;-81
2022/12/08 00:21:40;;;;;;;3.50;2.07;;;;;;;-145.69;100.00;52755.31;5093345;28;20244;-82
2022/12/08 00:24:07;;;;;;;2.53;1.70;;;;;;;-145.69;100.00;52745.41;5093162;28;20216;-83
2022/12/08 00:26:34;;;;;;;3.57;2.00;;;;;;;-145.69;100.00;52777.09;5093116;28;20568;-82
2022/12/08 00:29:00;;;;;;;4.17;2.40;;;;;;;-145.69;100.00;52761.25;5093079;28;20620;-82
2022/12/08 00:31:27;;;;;;;4.60;2.40;;;;;;;-145.69;100.00;52765.22;5092962;28;20204;-81
2022/12/08 00:33:53;;;;;;;5.90;2.20;;;;;;;-145.69;100.00;52755.31;5093075;28;20698;-82
2022/12/08 00:36:20;;;;;;;3.63;2.20;;;;;;;-145.69;100.00;52753.34;5094614;28;20224;-83
2022/12/08 00:38:48;;;;;;;4.83;2.33;;;;;;;-145.69;100.00;52741.47;5097288;28;20202;-83
2022/12/08 00:41:16;;;;;;;3.80;2.07;;;;;;;-145.69;100.00;52741.47;5096922;28;20232;-82
2022/12/08 00:43:43;;;;;;;5.10;2.67;;;;;;;-145.69;100.00;52765.22;5095942;28;20422;-82
2022/12/08 00:46:10;;;;;;;3.80;2.33;;;;;;;-145.69;100.00;52737.50;5096723;28;20194;-83
2022/12/08 00:48:37;;;;;;;6.57;2.50;;;;;;;-145.69;100.00;52783.06;5096885;28;20202;-83
2022/12/08 00:51:04;;;;;;;4.03;1.83;;;;;;;-145.69;100.00;52743.44;5096694;28;20675;-82
2022/12/08 00:53:31;;;;;;;3.30;2.17;;;;;;;-145.69;100.00;52794.94;5096797;28;20190;-82
2022/12/08 00:55:59;;;;;;;4.70;2.30;;;;;;;-145.69;100.00;52757.31;5096962;28;20198;-82
2022/12/08 00:58:25;;;;;;;4.70;2.40;;;;;;;-145.69;100.00;52765.22;5096913;28;20198;-83
2022/12/08 01:00:52;;;;;;;4.13;2.60;;;;;;;-145.69;100.00;52761.25;5096917;28;20333;-82
2022/12/08 01:03:18;;;;;;;3.90;2.20;;;;;;;-145.69;100.00;52753.34;5096875;28;20635;-82
2022/12/08 01:05:45;;;;;;;3.27;2.00;;;;;;;-145.69;100.00;52743.44;5095957;28;20190;-83
2022/12/08 01:08:11;;;;;;;4.00;2.50;;;;;;;-145.69;100.00;52723.63;5096490;28;20289;-82
2022/12/08 01:10:41;;;;;;;5.80;2.90;;;;;;;-145.69;100.00;52785.03;5096262;28;20541;-82
2022/12/08 01:13:10;;;;;;;5.20;2.93;;;;;;;-145.69;100.00;52773.16;5082681;28;20285;-82
2022/12/08 01:15:37;;;;;;;4.97;2.90;;;;;;;-145.69;100.00;52769.19;5076079;28;20199;-83
2022/12/08 01:18:03;;;;;;;6.00;3.30;;;;;;;-145.69;100.00;52737.50;5084724;28;20190;-83
2022/12/08 01:20:30;;;;;;;8.87;4.07;;;;;;;-145.69;100.00;52757.31;5096487;28;20229;-83
2022/12/08 01:22:56;;;;;;;9.30;3.50;;;;;;;-145.69;100.00;52792.94;5096175;28;20210;-82
2022/12/08 01:25:23;;;;;;;12.07;3.93;;;;;;;-145.69;100.00;52761.25;5092621;28;20720;-82
2022/12/08 01:27:51;;;;;;;7.47;3.93;;;;;;;-145.69;100.00;52751.34;5096205;28;20199;-82
2022/12/08 01:30:20;;;;;;;6.67;3.20;;;;;;;-145.69;100.00;52745.41;5096026;28;20212;-82
2022/12/08 01:32:46;;;;;;;6.00;3.50;;;;;;;-145.69;100.00;52777.09;5096317;28;20202;-82
2022/12/08 01:35:13;;;;;;;5.83;3.50;;;;;;;-145.69;100.00;52790.97;5096195;28;20234;-83
2022/12/08 01:37:40;;;;;;;4.90;2.83;;;;;;;-145.69;100.00;52771.16;5096287;28;20198;-83
2022/12/08 01:40:07;;;;;;;3.97;2.60;;;;;;;-145.69;100.00;52747.41;5096198;28;20226;-82
2022/12/08 01:42:37;;;;;;;4.20;2.83;;;;;;;-145.69;100.00;52765.22;5088469;28;20207;-83
2022/12/08 01:45:06;;;;;;;7.07;3.47;;;;;;;-145.69;100.00;52739.47;5076002;28;20226;-83
2022/12/08 01:47:41;;;;;;;7.23;3.90;;;;;;;-145.69;100.00;52792.94;5079419;28;20202;-83
2022/12/08 01:50:12;;;;;;;6.53;3.80;;;;;;;-145.69;100.00;52765.22;5096019;28;20209;-82
2022/12/08 01:52:42;;;;;;;7.47;3.13;;;;;;;-145.69;100.00;52773.16;5095876;28;20292;-83
2022/12/08 01:55:15;;;;;;;6.40;3.50;;;;;;;-145.69;100.00;52745.41;5095409;28;20186;-83
2022/12/08 01:57:47;;;;;;;6.83;3.60;;;;;;;-145.69;100.00;52739.47;5095873;28;20194;-83
2022/12/08 02:00:16;;;;;;;9.80;3.50;;;;;;;-145.69;100.00;52751.34;5095812;28;20260;-83
2022/12/08 02:02:53;;;;;;;6.00;3.10;;;;;;;-145.69;100.00;52790.97;5096132;28;20201;-82
2022/12/08 02:05:23;;;;;;;7.57;3.43;;;;;;;-145.69;100.00;52771.16;5096002;28;20228;-82
2022/12/08 02:07:51;;;;;;;11.50;3.30;;;;;;;-145.69;100.00;52767.19;5095768;28;20216;-83
2022/12/08 02:10:20;;;;;;;7.00;3.27;;;;;;;-145.69;100.00;52733.53;5095886;28;20220;-83
2022/12/08 02:12:48;;;;;;;5.90;2.90;;;;;;;-145.69;100.00;52773.16;5095824;28;20198;-83
2022/12/08 02:15:15;;;;;;;5.17;2.97;;;;;;;-145.69;100.00;52773.16;5095885;28;20195;-83
2022/12/08 02:18:00;;;;;;;6.43;3.60;;;;;;;-145.69;100.00;52785.03;5095589;28;20201;-83
2022/12/08 02:20:45;;;;;;;6.77;2.87;;;;;;;-145.69;100.00;52792.94;5095897;28;20218;-82
2022/12/08 02:23:23;;;;;;;4.73;2.73;;;;;;;-145.69;100.00;52761.25;5095753;28;20225;-83
2022/12/08 02:26:24;;;;;;;6.93;3.47;;;;;;;-145.69;100.00;52765.22;5095646;28;20204;-83
2022/12/08 02:29:27;;;;;;;8.23;3.67;;;;;;;-145.69;100.00;52775.13;5095679;28;20737;-83
2022/12/08 02:32:15;;;;;;;6.63;3.87;;;;;;;-145.69;100.00;52757.31;5088549;28;20202;-83
2022/12/08 02:34:47;;;;;;;7.23;3.70;;;;;;;-145.69;100.00;52735.50;5094957;28;20317;-82
2022/12/08 02:37:22;;;;;;;6.67;3.37;;;;;;;-145.69;100.00;52769.19;5095316;28;20209;-82
2022/12/08 02:39:55;;;;;;;8.03;3.00;;;;;;;-145.69;100.00;52759.28;5095417;28;20193;-82
2022/12/08 02:42:29;;;;;;;5.73;3.07;;;;;;;-145.69;100.00;52751.34;5095233;28;20201;-81
2022/12/08 02:45:00;;;;;;;9.33;4.17;;;;;;;-145.69;100.00;52781.06;5095828;28;20691;-82
2022/12/08 02:47:30;;;;;;;8.53;4.00;;;;;;;-145.69;100.00;52800.88;5095267;28;20316;-82
2022/12/08 02:50:01;;;;;;;7.17;4.07;;;;;;;-145.69;100.00;52761.25;5098390;28;20233;-82
2022/12/08 02:52:45;;;;;;;7.57;3.83;;;;;;;-145.69;100.00;52773.16;5098468;28;20205;-82
2022/12/08 02:55:20;;;;;;;6.70;3.83;;;;;;;-145.69;100.00;52781.06;5096905;28;20649;-82
2022/12/08 02:58:23;;;;;;;8.27;3.43;;;;;;;-145.69;100.00;52773.16;5096604;28;20193;-81
2022/12/08 03:01:08;;;;;;;8.97;3.90;;;;;;;-145.69;100.00;52753.34;5094974;28;20229;-82
2022/12/08 03:03:46;;;;;;;7.30;3.17;;;;;;;-145.69;100.00;52792.94;5095037;28;20202;-82
2022/12/08 03:06:25;;;;;;;6.17;3.20;;;;;;;-145.69;100.00;52792.94;5095257;28;20198;-82
2022/12/08 03:08:58;;;;;;;7.20;3.30;;;;;;;-145.69;100.00;52747.41;5095168;28;20202;-82
2022/12/08 03:11:30;;;;;;;6.67;3.03;;;;;;;-145.69;100.00;52779.09;5095095;28;20298;-82
2022/12/08 03:14:00;;;;;;;9.57;3.23;;;;;;;-145.69;100.00;52773.16;5094613;28;20204;-82
2022/12/08 03:16:34;;;;;;;6.47;2.63;;;;;;;-145.69;100.00;52757.31;5086302;28;20196;-82
2022/12/08 03:19:04;;;;;;;6.00;3.00;;;;;;;-145.69;100.00;52737.50;5094806;28;20198;-82
2022/12/08 03:21:34;;;;;;;4.07;2.43;;;;;;;-145.69;100.00;52735.50;5094397;28;20604;-82
2022/12/08 03:24:04;;;;;;;4.23;2.30;;;;;;;-145.69;100.00;52779.09;5094330;28;20202;-82
2022/12/08 03:26:36;;;;;;;3.77;2.47;;;;;;;-145.69;100.00;52769.19;5091644;28;20194;-82
2022/12/08 03:29:03;;;;;;;5.30;2.60;;;;;;;-145.69;100.00;52781.06;5093327;28;20197;-82
2022/12/08 03:31:34;;;;;;;5.13;2.40;;;;;;;-145.69;100.00;52779.09;5094002;28;20193;-82
2022/12/08 03:34:02;;;;;;;3.57;2.37;;;;;;;-145.69;100.00;52789.00;5094350;28;20209;-82
2022/12/08 03:36:29;;;;;;;3.20;2.20;;;;;;;-145.69;100.00;52785.03;5093670;28;20280;-81
2022/12/08 03:38:57;;;;;;;5.23;2.57;;;;;;;-145.69;100.00;52765.22;5094053;28;20194;-82
2022/12/08 03:41:23;;;;;;;5.00;2.80;;;;;;;-145.69;100.00;52761.25;5093614;28;20697;-82
2022/12/08 03:43:52;;;;;;;6.07;2.83;;;;;;;-145.69;100.00;52769.19;5093808;28;20190;-85
2022/12/08 03:46:19;;;;;;;6.20;2.70;;;;;;;-145.69;100.00;52789.00;5093826;28;20340;-82
2022/12/08 03:48:46;;;;;;;4.83;2.57;;;;;;;-145.69;100.00;52781.06;5093820;28;20202;-82
2022/12/08 03:51:13;;;;;;;6.33;2.70;;;;;;;-145.69;100.00;52765.22;5093650;28;20190;-84
2022/12/08 03:53:39;;;;;;;8.23;3.47;;;;;;;-145.69;100.00;52802.84;5093886;28;20233;-84
2022/12/08 03:56:15;;;;;;;5.90;3.13;;;;;;;-145.69;100.00;52794.94;5092998;28;20722;-84
2022/12/08 03:58:43;;;;;;;5.00;2.57;;;;;;;-145.69;100.00;52785.03;5093642;28;20690;-84
2022/12/08 04:01:09;;;;;;;5.57;3.20;;;;;;;-145.69;100.00;52812.75;5093434;28;20229;-85
2022/12/08 04:03:36;;;;;;;5.00;3.07;;;;;;;-145.69;100.00;52785.03;5093909;28;20202;-84
2022/12/08 04:06:02;;;;;;;3.93;2.50;;;;;;;-145.69;100.00;52808.78;5093858;28;20205;-82
2022/12/08 04:08:29;;;;;;;6.10;2.47;;;;;;;-145.69;100.00;52777.09;5093974;28;20208;-85
2022/12/08 04:10:56;;;;;;;5.43;2.47;;;;;;;-145.69;100.00;52790.97;5094065;28;20202;-82
2022/12/08 04:13:25;;;;;;;4.83;2.40;;;;;;;-145.69;100.00;52798.91;5093520;28;20186;-84
2022/12/08 04:15:54;;;;;;;3.83;2.00;;;;;;;-145.69;100.00;52761.25;5094289;28;20198;-84
2022/12/08 04:18:21;;;;;;;4.00;2.27;;;;;;;-145.69;100.00;52792.94;5093960;28;20201;-84
2022/12/08 04:20:48;;;;;;;4.83;2.80;;;;;;;-145.69;100.00;52749.38;5094416;28;20226;-84
2022/12/08 04:23:15;;;;;;;5.27;2.40;;;;;;;-145.69;100.00;52789.00;5095713;28;20571;-83
2022/12/08 04:25:41;;;;;;;5.00;2.43;;;;;;;-145.69;100.00;52769.19;5095980;28;20293;-84
2022/12/08 04:28:08;;;;;;;4.27;2.00;;;;;;;-145.69;100.00;52765.22;5095805;28;20194;-84
2022/12/08 04:30:36;;;;;;;4.20;2.53;;;;;;;-145.69;100.00;52781.06;5096249;28;20290;-84
2022/12/08 04:33:02;;;;;;;4.90;2.47;;;;;;;-145.69;100.00;52775.13;5096267;28;20201;-84
2022/12/08 04:35:29;;;;;;;4.70;2.60;;;;;;;-145.69;100.00;52792.94;5096139;28;20234;-84
2022/12/08 04:37:56;;;;;;;6.77;2.20;;;;;;;-145.69;100.00;52794.94;5096805;28;20210;-84
2022/12/08 04:40:22;;;;;;;4.50;2.50;;;;;;;-145.69;100.00;52767.19;5096750;28;20198;-84
2022/12/08 04:42:49;;;;;;;3.97;2.20;;;;;;;-145.69;100.00;52812.75;5096455;28;20222;-84
2022/12/08 04:45:15;;;;;;;3.87;1.87;;;;;;;-145.69;100.00;52792.94;5095925;28;20216;-84
2022/12/08 04:47:43;;;;;;;4.80;2.33;;;;;;;-145.69;100.00;52773.16;5096894;28;20198;-84
2022/12/08 04:50:11;;;;;;;3.47;1.93;;;;;;;-145.69;100.00;52781.06;5096195;28;20236;-83
2022/12/08 04:52:39;;;;;;;7.77;2.53;;;;;;;-145.69;100.00;52781.06;5097181;28;20202;-84
2022/12/08 04:55:06;;;;;;;4.70;1.97;;;;;;;-145.69;100.00;52785.03;5096897;28;20209;-84
2022/12/08 04:57:33;;;;;;;2.10;1.60;;;;;;;-145.69;100.00;52806.81;5097115;28;20238;-84
2022/12/08 04:59:59;;;;;;;3.17;1.80;;;;;;;-145.69;100.00;52775.13;5096868;28;20209;-83
2022/12/08 05:02:26;;;;;;;4.53;1.83;;;;;;;-145.69;100.00;52802.84;5097387;28;20226;-84
2022/12/08 05:04:54;;;;;;;10.23;2.37;;;;;;;-145.69;100.00;52781.06;5096711;28;20661;-83
2022/12/08 05:07:23;;;;;;;3.33;1.90;;;;;;;-145.69;100.00;52804.84;5097397;28;20202;-84
2022/12/08 05:09:49;;;;;;;4.60;2.47;;;;;;;-145.69;100.00;52824.63;5097225;28;20198;-84
2022/12/08 05:12:29;;;;;;;5.10;2.33;;;;;;;-145.69;100.00;52785.03;5097053;28;20664;-84
2022/12/08 05:14:55;;;;;;;7.60;3.07;;;;;;;-145.69;100.00;52773.16;5096879;28;20216;-84
2022/12/08 05:17:22;;;;;;;7.00;3.00;;;;;;;-145.69;100.00;52767.19;5096260;28;20198;-84
2022/12/08 05:19:48;;;;;;;7.53;2.77;;;;;;;-145.69;100.00;52783.06;5098414;28;20252;-84
2022/12/08 05:22:16;;;;;;;5.77;2.70;;;;;;;-145.69;100.00;52775.13;5105297;28;20225;-84
2022/12/08 05:24:43;;;;;;;4.07;2.67;;;;;;;-145.69;100.00;52800.88;5108887;28;20198;-84
2022/12/08 05:27:12;;;;;;;6.57;2.50;;;;;;;-145.69;100.00;52779.09;5091035;28;20210;-84
2022/12/08 05:29:39;;;;;;;12.53;3.00;;;;;;;-145.69;100.00;52806.81;5096501;28;20197;-83
2022/12/08 05:32:06;;;;;;;4.97;2.60;;;;;;;-145.69;100.00;52787.00;5100719;28;20204;-84
2022/12/08 05:34:32;;;;;;;5.93;2.63;;;;;;;-145.69;100.00;52769.19;5100281;28;20209;-83
2022/12/08 05:36:59;;;;;;;4.07;2.53;;;;;;;-145.69;100.00;52765.22;5099860;28;20656;-83
2022/12/08 05:39:27;;;;;;;8.60;2.80;;;;;;;-145.69;100.00;52771.16;5100092;28;20202;-83
2022/12/08 05:41:55;;;;;;;5.00;2.90;;;;;;;-145.69;100.00;52822.66;5102802;28;20684;-84
2022/12/08 05:44:22;;;;;;;5.40;2.67;;;;;;;-145.69;100.00;52792.94;5114799;28;20212;-84
2022/12/08 05:46:49;;;;;;;5.90;2.60;;;;;;;-145.69;100.00;52818.69;5116042;28;20190;-84
2022/12/08 05:49:16;;;;;;;3.07;2.20;;;;;;;-145.69;100.00;52783.06;5116189;28;20202;-83
2022/12/08 05:51:43;;;;;;;5.03;2.73;;;;;;;-145.69;100.00;52792.94;5113778;28;20194;-85
2022/12/08 05:54:10;;;;;;;6.63;3.47;;;;;;;-145.69;100.00;52779.09;5112739;28;20203;-85
2022/12/08 05:56:37;;;;;;;8.10;3.23;;;;;;;-145.69;100.00;52785.03;5112887;28;20195;-84
2022/12/08 05:59:05;;;;;;;6.67;2.97;;;;;;;-145.69;100.00;52812.75;5114523;28;20202;-83
2022/12/08 06:01:32;;;;;;;6.93;3.33;;;;;;;-145.69;100.00;52798.91;5114185;28;20297;-84
2022/12/08 06:04:00;;;;;;;7.07;3.27;;;;;;;-145.69;100.00;52781.06;5112071;28;20202;-84
2022/12/08 06:06:27;;;;;;;5.87;3.03;;;;;;;-145.69;100.00;52781.06;5114962;28;20206;-84
2022/12/08 06:08:55;;;;;;;5.90;3.10;;;;;;;-145.69;100.00;52777.09;5115885;28;20333;-83
2022/12/08 06:11:24;;;;;;;6.13;3.07;;;;;;;-145.69;100.00;52792.94;5116966;28;20198;-83
2022/12/08 06:13:52;;;;;;;3.60;2.30;;;;;;;-145.69;100.00;52747.41;5119296;28;20206;-83
2022/12/08 06:16:19;;;;;;;6.97;3.17;;;;;;;-145.69;100.00;52812.75;5119723;28;20205;-84
2022/12/08 06:18:46;;;;;;;3.77;2.50;;;;;;;-145.69;100.00;52773.16;5118669;28;20202;-84
2022/12/08 06:21:14;;;;;;;6.67;3.00;;;;;;;-145.69;100.00;52773.16;5117565;28;20206;-85
2022/12/08 06:23:41;;;;;;;5.97;2.73;;;;;;;-145.69;100.00;52769.19;5116605;28;20226;-84
2022/12/08 06:26:12;;;;;;;6.00;2.60;;;;;;;-145.69;100.00;52781.06;5116125;28;20224;-83
2022/12/08 06:28:39;;;;;;;3.97;2.37;;;;;;;-145.69;100.00;52808.78;5115983;28;20186;-84
2022/12/08 06:31:10;;;;;;;5.90;2.80;;;;;;;-145.69;100.00;52802.84;5115304;28;20214;-84
2022/12/08 06:33:37;;;;;;;4.87;2.47;;;;;;;-145.69;100.00;52838.50;5112196;28;20265;-84
2022/12/08 06:36:04;;;;;;;4.00;2.13;;;;;;;-145.69;100.00;52832.56;5112821;28;20236;-84
2022/12/08 06:38:31;;;;;;;5.07;2.57;;;;;;;-145.69;100.00;52769.19;5112796;28;20229;-82
2022/12/08 06:40:58;;;;;;;4.37;2.10;;;;;;;-145.69;100.00;52779.09;5112081;28;20198;-83
2022/12/08 06:43:25;;;;;;;4.50;2.47;;;;;;;-145.69;100.00;52789.00;5111418;28;20229;-83
2022/12/08 06:45:52;;;;;;;6.07;2.60;;;;;;;-145.69;100.00;52796.91;5111811;28;20194;-83
2022/12/08 06:48:21;;;;;;;5.97;2.60;;;;;;;-145.69;100.00;52806.81;5104729;28;20208;-83
2022/12/08 06:50:51;;;;;;;6.13;2.70;;;;;;;-145.69;100.00;52767.19;5115780;28;20205;-84
2022/12/08 06:53:18;;;;;;;6.07;2.77;;;;;;;-145.69;100.00;52798.91;5116457;28;20204;-83
2022/12/08 06:55:45;;;;;;;9.13;3.13;;;;;;;-145.69;100.00;52802.84;5114812;28;20287;-83
2022/12/08 06:58:12;;;;;;;5.63;2.87;;;;;;;-145.69;100.00;52810.78;5115578;28;20198;-83
2022/12/08 07:00:39;;;;;;;5.30;2.97;;;;;;;-145.69;100.00;52773.16;5115449;28;20217;-83
2022/12/08 07:03:07;;;;;;;4.57;2.50;;;;;;;-145.69;100.00;52771.16;5114748;28;20662;-83
2022/12/08 07:05:36;;;;;;;4.30;2.67;;;;;;;-145.69;100.00;52773.16;5113789;28;20209;-83
2022/12/08 07:08:03;;;;;;;6.70;2.77;;;;;;;-145.69;100.00;52830.59;5112667;28;20266;-83
2022/12/08 07:10:30;;;;;;;5.17;2.40;;;;;;;-145.69;100.00;52771.16;5113749;28;20194;-84
2022/12/08 07:12:56;;;;;;;6.37;3.23;;;;;;;-145.69;100.00;52830.59;5111576;28;20217;-84
2022/12/08 07:15:23;;;;;;;6.07;2.30;;;;;;;-145.69;100.00;52790.97;5111620;28;20174;-84
2022/12/08 07:17:49;;;;;;;4.00;2.43;;;;;;;-145.69;100.00;52777.09;5111146;28;20680;-84
2022/12/08 07:20:16;;;;;;;5.30;2.53;;;;;;;-145.69;100.00;52789.00;5111690;28;20731;-84
2022/12/08 07:22:49;;;;;;;4.00;2.30;;;;;;;-145.69;100.00;52789.00;5112127;28;20312;-84
2022/12/08 07:25:16;;;;;;;4.60;2.43;;;;;;;-145.69;100.00;52763.25;5100272;28;20203;-83
2022/12/08 07:27:43;;;;;;;5.23;2.40;;;;;;;-145.69;100.00;52777.09;5096107;28;20600;-83
2022/12/08 07:30:10;;;;;;;6.27;2.40;;;;;;;-145.69;100.00;52789.00;5102190;28;20632;-84
2022/12/08 07:32:36;;;;;;;5.20;3.17;;;;;;;-145.69;100.00;52769.19;5105397;28;20583;-84
2022/12/08 07:35:03;;;;;;;6.33;3.00;;;;;;;-145.69;100.00;52789.00;5104799;28;20238;-83
2022/12/08 07:37:30;;;;;;;5.67;2.83;;;;;;;-145.69;100.00;52785.03;5101220;28;20201;-83
2022/12/08 07:39:58;;;;;;;7.87;3.43;;;;;;;-145.69;100.00;52798.91;5100955;28;20206;-84
2022/12/08 07:42:24;;;;;;;5.40;2.60;;;;;;;-145.69;100.00;52794.94;5106644;28;20229;-83
2022/12/08 07:44:51;;;;;;;7.47;3.00;;;;;;;-145.69;100.00;52785.03;5105801;28;20202;-83
2022/12/08 07:47:17;;;;;;;4.67;2.53;;;;;;;-145.69;100.00;52779.09;5104273;28;20286;-83
2022/12/08 07:49:44;;;;;;;8.67;3.83;;;;;;;-145.69;100.00;52800.88;5107198;28;20552;-81
2022/12/08 07:52:10;;;;;;;10.80;3.90;;;;;;;-145.69;100.00;52757.31;5107334;28;20202;-81
2022/12/08 07:54:37;;;;;;;10.10;4.47;;;;;;;-145.69;100.00;52779.09;5106257;28;20201;-81
2022/12/08 07:57:05;;;;;;;8.50;3.77;;;;;;;-145.69;100.00;52800.88;5106736;28;20204;-82
2022/12/08 07:59:31;;;;;;;9.53;4.20;;;;;;;-145.69;100.00;52789.00;5103811;28;20654;-81
2022/12/08 08:01:58;;;;;;;10.80;3.43;;;;;;;-145.69;100.00;52771.16;5094831;28;20233;-83
2022/12/08 08:04:24;;;;;;;8.23;4.07;;;;;;;-145.69;100.00;52812.75;5102418;28;20209;-84
2022/12/08 08:06:51;;;;;;;8.13;3.80;;;;;;;-145.69;100.00;52781.06;5102192;28;20557;-82
2022/12/08 08:09:17;;;;;;;8.20;3.70;;;;;;;-145.69;100.00;52810.78;5104124;28;20220;-81
2022/12/08 08:11:44;;;;;;;7.17;3.40;;;;;;;-145.69;100.00;52802.84;5104113;28;20631;-81
2022/12/08 08:14:12;;;;;;;11.43;3.70;;;;;;;-145.69;100.00;52812.75;5103043;28;20207;-83
2022/12/08 08:16:40;;;;;;;6.27;3.10;;;;;;;-145.69;100.00;52796.91;5104963;28;20622;-83
2022/12/08 08:19:07;;;;;;;8.23;4.47;;;;;;;-145.69;100.00;52792.94;5102825;28;20440;-81
2022/12/08 08:21:33;;;;;;;11.33;5.30;;;;;;;-145.69;100.00;52757.31;5101725;28;20194;-83
2022/12/08 08:24:00;;;;;;;9.90;5.10;;;;;;;-145.69;100.00;52777.09;5103253;28;20293;-82
2022/12/08 08:26:26;;;;;;;10.00;5.07;;;;;;;-145.69;100.00;52761.25;5101722;28;20227;-83
2022/12/08 08:28:53;;;;;;;11.70;5.87;;;;;;;-145.69;100.00;52794.94;5102955;28;20649;-82
2022/12/08 08:31:25;;;;;;;13.57;5.90;;;;;;;-145.69;100.00;52777.09;5103508;28;20204;-82
2022/12/08 08:33:52;;;;;;;11.20;5.87;;;;;;;-145.69;100.00;52790.97;5102649;28;20204;-83
2022/12/08 08:36:20;;;;;;;10.43;5.03;;;;;;;-145.69;100.00;52804.84;5101461;28;20230;-82
2022/12/08 08:38:47;;;;;;;9.70;4.90;;;;;;;-145.69;100.00;52761.25;5102276;28;20237;-82
2022/12/08 08:41:13;;;;;;;11.20;4.60;;;;;;;-145.69;100.00;52792.94;5101969;28;20213;-82
2022/12/08 08:43:40;;;;;;;11.20;5.13;;;;;;;-145.69;100.00;52777.09;5100187;28;20226;-81
2022/12/08 08:46:07;;;;;;;11.50;4.87;;;;;;;-145.69;100.00;52777.09;5097241;28;20202;-81
2022/12/08 08:48:35;;;;;;;10.13;4.73;;;;;;;-145.69;100.00;52777.09;5097957;28;20224;-82
2022/12/08 08:51:08;;;;;;;11.03;5.20;;;;;;;-145.69;100.00;52763.25;5094821;28;20201;-83
2022/12/08 08:53:35;;;;;;;8.53;4.50;;;;;;;-145.69;100.00;52781.06;5095428;28;20236;-83
2022/12/08 08:56:03;;;;;;;10.17;5.10;;;;;;;-145.69;100.00;52769.19;5093661;28;20198;-81
2022/12/08 08:58:30;;;;;;;10.07;5.37;;;;;;;-145.69;100.00;52781.06;5104976;28;20611;-82
2022/12/08 09:00:57;;;;;;;8.83;4.70;;;;;;;-145.69;100.00;52761.25;5101484;28;20269;-83
2022/12/08 09:03:23;;;;;;;10.47;4.97;;;;;;;-145.69;100.00;52783.06;5099088;28;20229;-82
2022/12/08 09:05:51;;;;;;;9.90;4.50;;;;;;;-145.69;100.00;52779.09;5097993;28;20293;-82
2022/12/08 09:08:18;;;;;;;13.60;5.07;;;;;;;-145.69;100.00;52735.50;5106095;28;20208;-83
2022/12/08 09:10:44;;;;;;;8.23;4.63;;;;;;;-145.69;100.00;52755.31;5106017;28;20202;-82
2022/12/08 09:13:14;;;;;;;7.00;3.97;;;;;;;-145.69;100.00;52741.47;5103957;28;20202;-82
2022/12/08 09:15:40;;;;;;;9.33;4.73;;;;;;;-145.69;100.00;52721.66;5106316;28;20201;-82
2022/12/08 09:18:07;;;;;;;9.20;4.47;;;;;;;-145.69;100.00;52771.16;5107238;28;20206;-83
2022/12/08 09:20:34;;;;;;;12.97;5.63;;;;;;;-145.69;100.00;52753.34;5103526;28;20209;-83
2022/12/08 09:23:02;;;;;;;11.00;5.10;;;;;;;-145.69;100.00;52753.34;5099637;28;20676;-83
2022/12/08 09:25:31;;;;;;;10.30;5.70;;;;;;;-145.69;100.00;52743.44;5087856;28;20205;-82
2022/12/08 09:27:57;;;;;;;12.30;6.37;;;;;;;-145.69;100.00;52753.34;5083356;28;20728;-81
2022/12/08 09:30:24;;;;;;;11.50;5.30;;;;;;;-145.69;100.00;52759.28;5083435;28;20286;-83
2022/12/08 09:32:53;;;;;;;11.37;5.17;;;;;;;-145.69;100.00;52729.56;5100997;28;20752;-83
2022/12/08 09:35:20;;;;;;;9.03;4.97;;;;;;;-145.69;100.00;52733.53;5108018;28;20234;-84
2022/12/08 09:37:52;;;;;;;12.93;5.50;;;;;;;-145.69;100.00;52789.00;5096465;28;20201;-82
2022/12/08 09:40:22;;;;;;;12.17;5.53;;;;;;;-145.69;100.00;52729.56;5096314;28;20199;-83
2022/12/08 09:42:55;;;;;;;23.87;8.50;;;;;;;-145.69;100.00;52757.31;5097892;28;20229;-84
2022/12/08 09:45:24;;;;;;;23.73;8.70;;;;;;;-145.69;100.00;52775.13;5099851;28;20194;-81
2022/12/08 09:48:00;;;;;;;18.80;8.53;;;;;;;-145.69;100.00;52757.31;5098304;28;20236;-83
2022/12/08 09:50:33;;;;;;;18.70;7.40;;;;;;;-145.69;100.00;52765.22;5098117;28;20208;-83
2022/12/08 09:53:07;;;;;;;13.90;6.17;;;;;;;-145.69;100.00;52773.16;5100746;28;20209;-83
2022/12/08 09:55:42;;;;;;;13.73;6.20;;;;;;;-145.69;100.00;52794.94;5095174;28;20230;-81
2022/12/08 09:58:19;;;;;;;9.33;5.30;;;;;;;-145.69;100.00;52751.34;5095451;28;20212;-80
2022/12/08 10:00:46;;;;;;;9.57;5.20;;;;;;;-145.69;100.00;52753.34;5094659;28;20194;-80
2022/12/08 10:03:13;;;;;;;8.33;4.63;;;;;;;-145.69;100.00;52743.44;5095080;28;20321;-80
2022/12/08 10:05:46;;;;;;;8.50;4.30;;;;;;;-145.69;100.00;52731.56;5094923;28;20660;-80
2022/12/08 10:08:20;;;;;;;8.50;4.17;;;;;;;-145.69;100.00;52757.31;5095141;28;20202;-80
2022/12/08 10:10:57;;;;;;;9.63;4.37;;;;;;;-145.69;100.00;52757.31;5094800;28;20197;-80
2022/12/08 10:13:33;;;;;;;8.70;3.97;;;;;;;-145.69;100.00;52777.09;5094932;28;20201;-80
2022/12/08 10:16:12;;;;;;;11.57;4.33;;;;;;;-145.69;100.00;52761.25;5094886;28;20659;-80
2022/12/08 10:18:39;;;;;;;13.93;6.57;;;;;;;-145.69;100.00;52751.34;5095016;28;20676;-80
2022/12/08 10:21:15;;;;;;;9.30;4.60;;;;;;;-145.69;100.00;52741.47;5095374;28;20198;-79
2022/12/08 10:23:45;;;;;;;8.97;4.77;;;;;;;-145.69;100.00;52753.34;5094346;28;20229;-79
2022/12/08 10:26:15;;;;;;;9.63;4.90;;;;;;;-145.69;100.00;52731.56;5094965;28;20194;-79
2022/12/08 10:28:42;;;;;;;8.70;4.80;;;;;;;-145.69;100.00;52771.16;5094842;28;20202;-79
2022/12/08 10:31:15;;;;;;;7.17;3.80;;;;;;;-145.69;100.00;52751.34;5094675;28;20202;-79
2022/12/08 10:33:42;;;;;;;9.93;5.70;;;;;;;-145.69;100.00;52767.19;5094865;28;20198;-79
2022/12/08 10:36:10;;;;;;;8.07;4.17;;;;;;;-145.69;100.00;52737.50;5094284;28;20308;-80
2022/12/08 10:38:38;;;;;;;10.80;4.90;;;;;;;-145.69;100.00;52769.19;5094844;28;20205;-79
2022/12/08 10:41:11;;;;;;;15.57;8.00;;;;;;;-145.69;100.00;52682.03;5094031;28;20649;-78
2022/12/08 10:43:43;;;;;;;10.00;5.57;;;;;;;-145.69;100.00;52751.34;5094489;28;20252;-79
2022/12/08 10:46:12;;;;;;;5.13;3.40;;;;;;;-145.69;100.00;52711.75;5094444;28;20595;-80
2022/12/08 10:48:49;;;;;;;11.47;4.73;;;;;;;-145.69;100.00;52747.41;5094019;28;20660;-80
2022/12/08 10:51:24;;;;;;;11.20;5.27;;;;;;;-145.69;100.00;52753.34;5093965;28;20190;-79
2022/12/08 10:53:50;;;;;;;9.83;4.97;;;;;;;-145.69;100.00;52749.38;5094073;28;20660;-79
2022/12/08 10:56:19;;;;;;;11.53;4.40;;;;;;;-145.69;100.00;52741.47;5094126;28;20205;-80
2022/12/08 10:58:47;;;;;;;9.77;4.37;;;;;;;-145.69;100.00;52713.72;5094135;28;20542;-79
2022/12/08 11:01:18;;;;;;;5.40;3.13;;;;;;;-145.69;100.00;52729.56;5094222;28;20212;-79
2022/12/08 11:03:48;;;;;;;9.60;4.50;;;;;;;-145.69;100.00;52727.59;5094270;28;20261;-80
2022/12/08 11:06:17;;;;;;;8.93;4.83;;;;;;;-145.69;100.00;52735.50;5094332;28;20205;-80
2022/12/08 11:08:51;;;;;;;7.97;4.90;;;;;;;-145.69;100.00;52741.47;5093437;28;20923;-79
2022/12/08 11:11:21;;;;;;;8.40;4.77;;;;;;;-145.69;100.00;52796.91;5093693;28;20198;-79
2022/12/08 11:13:51;;;;;;;6.90;3.57;;;;;;;-145.69;100.00;52733.53;5093918;28;20675;-79
2022/12/08 11:16:19;;;;;;;9.13;3.73;;;;;;;-145.69;100.00;52741.47;5094108;28;20210;-79
2022/12/08 11:18:48;;;;;;;8.50;4.20;;;;;;;-145.69;100.00;52763.25;5090834;28;20275;-79